createdAt,value
2019-05-21T00:03:57.738Z,4.00
2019-05-21T00:08:55.788Z,3.80
2019-05-21T00:14:02.097Z,4.07
2019-05-21T00:18:49.563Z,4.23
2019-05-21T00:23:52.472Z,3.93
2019-05-21T00:29:43.971Z,3.60
2019-05-21T00:35:46.302Z,3.77
2019-05-21T00:41:39.587Z,3.70
2019-05-21T00:46:35.372Z,4.27
2019-05-21T00:51:31.281Z,3.73
2019-05-21T00:56:27.240Z,3.23
2019-05-21T01:01:23.116Z,2.90
2019-05-21T01:06:21.730Z,3.33
2019-05-21T01:11:17.612Z,3.13
2019-05-21T01:16:13.505Z,2.90
2019-05-21T01:21:15.328Z,3.07
2019-05-21T01:26:11.214Z,3.60
2019-05-21T01:31:07.191Z,3.23
2019-05-21T01:36:03.203Z,3.10
2019-05-21T01:40:59.110Z,3.00
2019-05-21T01:46:06.338Z,2.90
2019-05-21T01:51:02.191Z,3.30
2019-05-21T01:55:57.966Z,2.60
2019-05-21T02:00:56.062Z,2.50
2019-05-21T06:24:32.436Z,2.57
2019-05-21T06:29:28.573Z,2.87
2019-05-21T06:34:24.695Z,3.23
2019-05-21T06:39:20.697Z,3.13
2019-05-21T06:44:17.778Z,3.30
2019-05-21T06:49:13.734Z,2.57
2019-05-21T06:54:09.711Z,2.83
2019-05-21T06:59:06.428Z,2.97
2019-05-21T07:04:02.353Z,2.63
2019-05-21T07:08:58.167Z,3.33
2019-05-21T07:13:53.990Z,3.27
2019-05-21T07:18:49.925Z,3.00
2019-05-21T07:23:45.877Z,3.70
2019-05-21T07:28:41.758Z,3.03
2019-05-21T07:33:38.103Z,3.33
2019-05-21T07:38:56.347Z,2.90
2019-05-21T07:43:52.284Z,2.67
2019-05-21T07:48:48.458Z,2.70
2019-05-21T07:53:44.398Z,3.00
2019-05-21T07:58:40.270Z,2.47
2019-05-21T08:03:39.230Z,2.73
2019-05-21T08:08:35.486Z,2.93
2019-05-21T08:13:31.691Z,2.53
2019-05-21T08:18:30.838Z,3.23
2019-05-21T08:23:26.912Z,3.30
2019-05-21T08:28:27.988Z,3.00
2019-05-21T08:33:24.095Z,2.83
2019-05-21T08:38:21.258Z,3.53
2019-05-21T08:43:17.098Z,2.57
2019-05-21T08:48:15.262Z,3.60
2019-05-21T08:53:11.516Z,2.87
2019-05-21T08:58:12.873Z,3.17
2019-05-21T09:03:08.703Z,3.40
2019-05-21T09:08:04.526Z,3.57
2019-05-21T09:13:00.557Z,3.43
2019-05-21T09:17:56.355Z,3.10
2019-05-21T09:22:52.269Z,3.23
2019-05-21T09:27:48.330Z,3.23
2019-05-21T09:32:44.484Z,3.30
2019-05-21T09:37:40.331Z,2.63
2019-05-21T09:42:36.299Z,2.90
2019-05-21T09:47:32.262Z,2.80
2019-05-21T09:52:28.169Z,2.60
2019-05-21T09:57:31.289Z,2.53
2019-05-21T10:02:29.888Z,2.60
2019-05-21T10:07:39.291Z,3.00
2019-05-21T10:12:23.912Z,2.90
2019-05-21T10:17:21.921Z,2.53
2019-05-21T10:22:20.355Z,2.57
2019-05-21T10:27:18.954Z,2.37
2019-05-21T10:32:23.812Z,2.47
2019-05-21T10:37:19.723Z,2.40
2019-05-21T10:42:15.589Z,2.20
2019-05-21T10:47:15.744Z,2.33
2019-05-21T10:52:09.271Z,2.80
2019-05-21T10:57:05.293Z,2.60
2019-05-21T11:02:17.604Z,1.97
2019-05-21T11:07:15.235Z,3.07
2019-05-21T11:12:15.037Z,2.27
2019-05-21T11:17:13.418Z,2.30
2019-05-21T11:22:09.234Z,2.27
2019-05-21T11:27:05.797Z,2.33
2019-05-21T11:32:01.831Z,2.53
2019-05-21T11:36:57.833Z,2.97
2019-05-21T11:41:53.680Z,2.20
2019-05-21T11:46:57.518Z,2.47
2019-05-21T11:51:53.338Z,2.50
2019-05-21T11:56:51.154Z,2.37
2019-05-21T12:01:47.362Z,2.30
2019-05-21T12:06:44.174Z,3.10
2019-05-21T12:11:40.197Z,2.60
2019-05-21T12:16:36.159Z,2.50
2019-05-21T12:21:34.392Z,2.73
2019-05-21T12:26:30.564Z,2.27
2019-05-21T12:31:26.589Z,2.47
2019-05-21T12:36:22.680Z,2.30
2019-05-21T12:41:18.934Z,2.37
2019-05-21T12:46:14.883Z,2.40
2019-05-21T12:51:12.278Z,2.40
2019-05-21T12:56:09.232Z,2.37
2019-05-21T13:01:06.174Z,2.87
2019-05-21T13:06:02.190Z,2.37
2019-05-21T13:10:58.280Z,2.83
2019-05-21T13:15:54.303Z,2.63
2019-05-21T13:20:50.388Z,3.40
2019-05-21T13:25:46.269Z,3.30
2019-05-21T13:30:42.407Z,3.27
2019-05-21T13:35:40.741Z,3.00
2019-05-21T13:40:39.513Z,3.80
2019-05-21T13:45:36.774Z,3.93
2019-05-21T13:50:39.597Z,3.77
2019-05-21T13:55:35.686Z,4.00
2019-05-21T14:00:45.623Z,4.17
2019-05-21T14:05:43.760Z,5.33
2019-05-21T14:10:50.961Z,5.37
2019-05-21T14:15:46.856Z,4.73
2019-05-21T14:20:46.313Z,4.97
2019-05-21T14:25:42.089Z,5.60
2019-05-21T14:30:42.791Z,5.00
2019-05-21T14:35:39.842Z,5.90
2019-05-21T14:40:37.281Z,5.73
2019-05-21T14:45:34.542Z,6.17
2019-05-21T14:50:33.019Z,5.50
2019-05-21T14:55:28.909Z,5.53
2019-05-21T15:00:30.403Z,5.37
2019-05-21T15:05:26.419Z,6.07
2019-05-21T15:10:22.414Z,6.27
2019-05-21T15:15:18.913Z,6.77
2019-05-21T15:20:22.890Z,5.43
2019-05-21T15:25:18.790Z,6.30
2019-05-21T15:30:16.592Z,5.90
2019-05-21T15:35:14.534Z,6.47
2019-05-21T15:40:11.632Z,6.30
2019-05-21T15:45:07.998Z,6.40
2019-05-21T15:50:04.198Z,5.93
2019-05-21T15:55:00.196Z,5.87
2019-05-21T15:59:56.032Z,6.40
2019-05-21T16:04:52.130Z,6.03
2019-05-21T16:09:48.973Z,5.47
2019-05-21T16:14:49.510Z,4.83
2019-05-21T16:19:42.660Z,5.60
2019-05-21T16:24:38.693Z,5.23
2019-05-21T16:29:34.714Z,5.63
2019-05-21T16:40:26.153Z,5.10
2019-05-21T17:03:09.292Z,4.70
2019-05-21T17:14:28.728Z,4.43
2019-05-21T17:19:24.603Z,4.47
2019-05-21T17:24:22.705Z,4.23
2019-05-21T17:29:18.563Z,4.87
2019-05-21T17:34:14.529Z,3.97
2019-05-21T17:39:10.941Z,4.90
2019-05-21T17:44:14.161Z,4.27
2019-05-21T17:49:29.514Z,4.43
2019-05-21T17:54:25.609Z,4.47
2019-05-21T17:59:23.934Z,4.33
2019-05-21T18:04:20.335Z,3.70
2019-05-21T18:09:17.786Z,4.20
2019-05-21T18:14:17.799Z,4.73
2019-05-21T18:19:20.212Z,4.93
2019-05-21T18:25:14.174Z,3.90
2019-05-21T18:29:24.786Z,4.30
2019-05-21T18:34:28.869Z,4.97
2019-05-21T18:39:29.187Z,4.33
2019-05-21T18:44:48.355Z,4.33
2019-05-21T18:49:44.434Z,4.53
2019-05-21T18:54:51.521Z,4.30
2019-05-21T18:59:47.797Z,4.30
2019-05-21T19:04:46.535Z,4.93
2019-05-21T19:09:47.764Z,4.57
2019-05-21T19:14:49.574Z,4.57
2019-05-21T19:19:45.735Z,4.43
2019-05-21T19:24:43.508Z,4.43
2019-05-21T19:29:40.706Z,3.07
2019-05-21T19:34:40.268Z,4.37
2019-05-21T19:39:38.633Z,4.33
2019-05-21T19:44:36.182Z,4.50
2019-05-21T19:49:33.807Z,4.63
2019-05-21T19:54:30.219Z,4.20
2019-05-21T19:59:28.438Z,4.23
2019-05-21T20:05:32.512Z,4.10
2019-05-21T20:10:51.693Z,4.10
2019-05-21T20:15:48.474Z,3.93
2019-05-21T20:20:46.252Z,4.50
2019-05-21T20:26:07.494Z,4.97
2019-05-21T20:31:13.254Z,4.67
2019-05-21T20:36:11.006Z,4.17
2019-05-21T20:41:08.876Z,4.33
2019-05-21T20:46:08.241Z,3.73
2019-05-21T20:51:04.621Z,4.27
2019-05-21T20:56:00.606Z,4.10
2019-05-21T21:01:02.373Z,4.97
2019-05-21T21:06:36.357Z,4.83
2019-05-21T21:29:33.004Z,4.17
2019-05-21T21:39:49.674Z,4.63
2019-05-21T21:44:46.058Z,4.17
2019-05-21T21:54:47.376Z,4.27
2019-05-21T21:59:43.249Z,4.30
2019-05-21T22:10:33.918Z,4.30
2019-05-21T22:15:33.177Z,5.00
2019-05-21T22:20:29.288Z,3.77
2019-05-21T22:25:25.403Z,4.33
2019-05-21T22:30:21.522Z,4.73
2019-05-21T22:35:17.967Z,4.87
2019-05-21T22:40:18.062Z,3.70
2019-05-21T22:45:15.629Z,4.57
2019-05-21T22:50:12.987Z,4.03
2019-05-21T22:55:12.607Z,3.40
2019-05-21T23:00:12.779Z,4.23
2019-05-21T23:05:09.371Z,3.33
2019-05-21T23:10:06.371Z,3.63
2019-05-21T23:15:02.441Z,3.77
2019-05-21T23:19:58.438Z,4.10
2019-05-21T23:24:55.261Z,4.10
2019-05-21T23:29:51.431Z,4.20
2019-05-21T23:34:49.693Z,3.90
2019-05-21T23:39:45.982Z,3.80
2019-05-21T23:44:43.171Z,3.33
2019-05-21T23:49:39.154Z,3.40
2019-05-21T23:54:35.039Z,3.50
2019-05-21T23:59:31.382Z,3.47
